Aérodrome :
LOGIN :

S'inscrire | Disclaimer

   EN    FR    IT 

 










Légende :    VFR   VFR Marginal   IFR   IFR Intensif   IFR Très Intensif
Visi : 
Plafond : 
>= 8 km
>= 3000ft
5 à 8 km
1000 à 3000 ft
1500m à 5 km
500 à 1000 ft
800 à 1500m
200 à 500 ft
< 800m
< 200 ft
Symboles :   Orages  Brouillard  Fortes neiges  Fortes précipitations  Vent > 20 kt
SIGMETs :   Divers  Orages  Givrage  Turbulence  Onde Orograph.  Cendres Volcan.






- Altitude de l'aérodrome : 0 ft
- AEROPORT FERMÉ.


ESKS - Strängnäs Air Base

DERNIER METAR :
  • 281520Z AUTO 13008KT 9999 BKN006/// OVC016/// 10/09 Q1022

METARs EXPIRÉS :
  • 281450Z AUTO 13009KT 9999 OVC006/// 10/09 Q1022
  • 281420Z AUTO 13007KT 090V150 9999 OVC006/// 10/09 Q1021
  • 281350Z AUTO 13009KT 9999 FEW006/// BKN009/// OVC069/// 10/09 Q1021
  • 281320Z AUTO 13009KT 9999 -RA SCT006/// BKN012/// OVC068/// 10/09 Q1021
  • 281250Z AUTO 12010KT 9999 -RA FEW006/// OVC053/// 10/09 Q1021

Prévision TAF périmée.



MET'MAP, la Météo Aéronautique d'un coup d'oeil ! - Copyright ORBIFLY Décembre 2007 - Disclaimer

ORBIFLY MET'MAP TEAM :

Programmation & Développement : Alexandra Zaïnal
Sur une idée originale de : Baudouin d'Aumeries
Assistance à la programmation : Marc-Olivier Méhu
Soutien technique & logistique : Manuel Goepfert

Contact : metmap@orbifly.com




SOURCES & CREDITS :

   NOAA